createdAt,value
2023-05-10T00:00:44.163Z,12.27
2023-05-10T00:03:10.800Z,12.24
2023-05-10T00:05:37.334Z,12.24
2023-05-10T00:08:03.998Z,12.24
2023-05-10T00:10:30.458Z,12.23
2023-05-10T00:12:56.984Z,12.27
2023-05-10T00:15:23.504Z,12.26
2023-05-10T00:17:50.044Z,12.24
2023-05-10T00:20:16.751Z,12.25
2023-05-10T00:22:43.490Z,12.23
2023-05-10T00:25:11.149Z,12.23
2023-05-10T00:27:37.697Z,12.22
2023-05-10T00:30:04.615Z,12.24
2023-05-10T00:32:31.540Z,12.17
2023-05-10T00:34:58.186Z,12.15
2023-05-10T00:37:24.655Z,12.19
2023-05-10T00:39:51.229Z,12.21
2023-05-10T00:42:17.724Z,12.18
2023-05-10T00:44:44.228Z,12.18
2023-05-10T00:47:11.217Z,12.21
2023-05-10T00:49:37.786Z,12.17
2023-05-10T00:52:04.683Z,12.08
2023-05-10T00:54:31.547Z,12.15
2023-05-10T00:56:58.339Z,12.14
2023-05-10T00:59:24.903Z,12.15
2023-05-10T01:01:52.599Z,12.14
2023-05-10T01:04:21.214Z,12.16
2023-05-10T01:06:47.717Z,12.11
2023-05-10T01:12:55.869Z,12.23
2023-05-10T01:15:22.932Z,12.18
2023-05-10T01:17:50.014Z,12.18
2023-05-10T01:20:17.026Z,12.16
2023-05-10T01:22:43.866Z,12.20
2023-05-10T01:25:42.034Z,12.15
2023-05-10T01:28:36.066Z,12.11
2023-05-10T01:31:05.895Z,12.01
2023-05-10T01:33:55.828Z,11.98
2023-05-10T01:36:27.917Z,12.08
2023-05-10T01:39:03.502Z,12.08
2023-05-10T01:42:07.582Z,12.09
2023-05-10T01:44:41.201Z,12.07
2023-05-10T01:47:33.567Z,12.07
2023-05-10T01:50:03.586Z,12.06
2023-05-10T01:52:37.678Z,12.06
2023-05-10T01:55:08.759Z,12.06
2023-05-10T01:57:38.235Z,11.96
2023-05-10T02:00:08.646Z,11.99
2023-05-10T02:02:38.737Z,11.95
2023-05-10T02:05:07.737Z,11.97
2023-05-10T02:07:36.483Z,11.94
2023-05-10T02:10:05.327Z,11.95
2023-05-10T02:12:36.278Z,11.91
2023-05-10T02:15:05.347Z,11.93
2023-05-10T02:17:33.693Z,11.86
2023-05-10T02:20:02.052Z,11.86
2023-05-10T02:22:29.520Z,11.79
2023-05-10T02:25:00.488Z,11.80
2023-05-10T02:27:28.916Z,11.77
2023-05-10T02:29:56.131Z,11.78
2023-05-10T02:32:25.566Z,11.72
2023-05-10T02:34:53.528Z,11.69
2023-05-10T02:37:21.971Z,11.60
2023-05-10T02:39:50.790Z,11.60
2023-05-10T02:42:20.513Z,11.56
2023-05-10T02:44:49.869Z,11.58
2023-05-10T02:47:16.481Z,11.59
2023-05-10T02:49:43.316Z,11.60
2023-05-10T02:52:10.451Z,11.57
2023-05-10T02:54:46.955Z,11.52
2023-05-10T02:57:19.087Z,11.58
2023-05-10T02:59:48.692Z,11.54
2023-05-10T03:02:15.538Z,11.47
2023-05-10T03:04:42.084Z,11.53
2023-05-10T03:07:08.890Z,11.53
2023-05-10T03:09:35.997Z,11.54
2023-05-10T03:12:06.530Z,11.58
2023-05-10T03:14:44.383Z,11.57
2023-05-10T03:17:32.052Z,11.43
2023-05-10T03:20:04.364Z,11.52
2023-05-10T03:22:39.195Z,11.45
2023-05-10T03:25:07.774Z,11.48
2023-05-10T03:27:36.358Z,11.36
2023-05-10T03:30:03.604Z,11.46
2023-05-10T03:32:31.228Z,11.45
2023-05-10T03:34:57.709Z,11.41
2023-05-10T03:37:24.254Z,11.40
2023-05-10T03:39:50.759Z,11.44
2023-05-10T03:42:20.477Z,11.32
2023-05-10T03:44:46.970Z,11.32
2023-05-10T03:47:13.388Z,11.37
2023-05-10T03:49:39.857Z,11.36
2023-05-10T03:52:06.421Z,11.42
2023-05-10T03:54:33.274Z,11.41
2023-05-10T03:56:59.740Z,11.48
2023-05-10T03:59:26.230Z,11.43
2023-05-10T04:01:52.918Z,11.41
2023-05-10T04:04:21.717Z,11.39
2023-05-10T04:06:48.513Z,11.40
2023-05-10T04:09:15.028Z,11.42
2023-05-10T04:11:41.490Z,11.42
2023-05-10T04:14:07.946Z,11.40
2023-05-10T04:16:34.509Z,11.42
2023-05-10T04:19:01.086Z,11.42
2023-05-10T04:21:27.661Z,11.40
2023-05-10T04:23:54.107Z,11.41
2023-05-10T04:26:21.158Z,11.39
2023-05-10T04:28:47.648Z,11.40
2023-05-10T04:31:14.249Z,11.54
2023-05-10T04:33:40.940Z,11.48
2023-05-10T04:36:07.656Z,11.57
2023-05-10T04:38:34.208Z,11.55
2023-05-10T04:41:10.640Z,11.54
2023-05-10T04:43:37.951Z,11.54
2023-05-10T04:46:05.702Z,11.64
2023-05-10T04:48:32.197Z,11.57
2023-05-10T04:50:58.710Z,11.60
2023-05-10T04:53:25.157Z,11.62
2023-05-10T04:55:51.634Z,11.68
2023-05-10T04:58:18.127Z,11.73
2023-05-10T05:00:45.206Z,11.75
2023-05-10T05:03:11.839Z,11.71
2023-05-10T05:05:38.408Z,11.74
2023-05-10T05:08:04.961Z,11.72
2023-05-10T05:10:31.661Z,11.73
2023-05-10T05:12:58.099Z,11.71
2023-05-10T05:15:24.649Z,11.75
2023-05-10T05:17:51.204Z,11.66
2023-05-10T05:20:18.267Z,11.77
2023-05-10T05:22:44.909Z,11.82
2023-05-10T05:25:12.644Z,11.80
2023-05-10T05:27:39.151Z,11.81
2023-05-10T05:30:06.364Z,11.77
2023-05-10T05:32:32.921Z,11.87
2023-05-10T05:34:59.526Z,11.78
2023-05-10T05:37:26.247Z,11.82
2023-05-10T05:39:52.748Z,11.85
2023-05-10T05:42:19.870Z,11.89
2023-05-10T05:44:46.668Z,11.88
2023-05-10T05:47:13.560Z,11.93
2023-05-10T05:49:40.587Z,11.93
2023-05-10T05:52:07.283Z,11.89
2023-05-10T05:54:33.814Z,11.92
2023-05-10T05:57:01.716Z,11.98
2023-05-10T05:59:28.545Z,11.97
2023-05-10T06:01:55.492Z,12.02
2023-05-10T06:04:22.201Z,11.89
2023-05-10T06:06:48.729Z,12.03
2023-05-10T06:09:15.430Z,11.95
2023-05-10T06:11:41.979Z,12.08
2023-05-10T06:14:08.932Z,12.07
2023-05-10T06:16:35.854Z,12.17
2023-05-10T06:19:03.262Z,12.10
2023-05-10T06:21:30.144Z,12.23
2023-05-10T06:23:56.647Z,12.27
2023-05-10T06:26:23.214Z,12.23
2023-05-10T06:28:49.684Z,12.30
2023-05-10T06:31:17.013Z,12.37
2023-05-10T06:33:43.547Z,12.25
2023-05-10T06:36:10.814Z,12.26
2023-05-10T06:38:37.530Z,12.39
2023-05-10T06:41:04.106Z,12.39
2023-05-10T06:43:30.750Z,12.41
2023-05-10T06:45:57.307Z,12.53
2023-05-10T06:48:24.068Z,12.49
2023-05-10T06:50:50.547Z,12.63
2023-05-10T06:53:17.184Z,12.67
2023-05-10T06:55:43.665Z,12.88
2023-05-10T06:58:10.181Z,12.98
2023-05-10T07:00:40.181Z,13.07
2023-05-10T07:03:07.175Z,13.06
2023-05-10T07:05:33.795Z,13.17
2023-05-10T07:08:00.831Z,13.18
2023-05-10T07:10:27.595Z,13.08
2023-05-10T07:12:54.284Z,13.33
2023-05-10T07:15:20.971Z,13.35
2023-05-10T07:17:47.606Z,13.31
2023-05-10T07:20:14.230Z,13.50
2023-05-10T07:22:40.830Z,13.59
2023-05-10T07:25:07.674Z,13.59
2023-05-10T07:27:34.148Z,13.65
2023-05-10T07:30:01.449Z,13.50
2023-05-10T07:32:28.097Z,13.67
2023-05-10T07:34:54.665Z,13.84
2023-05-10T07:37:21.265Z,13.81
2023-05-10T07:39:47.728Z,13.86
2023-05-10T07:42:14.192Z,13.82
2023-05-10T07:44:40.655Z,13.90
2023-05-10T07:47:08.242Z,13.85
2023-05-10T07:49:34.720Z,13.83
2023-05-10T07:52:01.167Z,13.71
2023-05-10T07:54:27.602Z,13.75
2023-05-10T07:56:54.033Z,13.70
2023-05-10T07:59:20.999Z,13.76
2023-05-10T08:01:47.517Z,13.68
2023-05-10T08:04:14.102Z,13.76
2023-05-10T08:06:41.248Z,13.83
2023-05-10T08:09:08.367Z,13.77
2023-05-10T08:11:35.276Z,13.68
2023-05-10T08:14:02.365Z,13.82
2023-05-10T08:16:29.851Z,13.84
2023-05-10T08:18:56.677Z,14.03
2023-05-10T08:21:23.190Z,13.88
2023-05-10T08:23:50.103Z,13.87
2023-05-10T08:26:16.735Z,13.69
2023-05-10T08:28:43.309Z,13.76
2023-05-10T08:31:09.847Z,13.68
2023-05-10T08:33:36.429Z,13.72
2023-05-10T08:36:02.985Z,13.71
2023-05-10T08:38:29.469Z,13.64
2023-05-10T08:40:58.036Z,13.76
2023-05-10T08:43:29.011Z,13.57
2023-05-10T08:45:57.429Z,13.84
2023-05-10T08:48:25.958Z,13.96
2023-05-10T08:50:57.536Z,13.87
2023-05-10T08:53:27.659Z,13.85
2023-05-10T08:55:54.349Z,13.99
2023-05-10T08:58:21.294Z,13.93
2023-05-10T09:00:53.666Z,13.81
2023-05-10T09:03:20.403Z,13.94
2023-05-10T09:05:47.430Z,13.93
2023-05-10T09:08:17.179Z,13.84
2023-05-10T09:10:44.437Z,13.92
2023-05-10T09:13:12.815Z,13.93
2023-05-10T09:15:39.589Z,14.01
2023-05-10T09:18:06.357Z,14.18
2023-05-10T09:20:32.924Z,14.27
2023-05-10T09:22:59.380Z,14.42
2023-05-10T09:25:25.981Z,14.77
2023-05-10T09:27:53.378Z,14.71
2023-05-10T09:30:27.769Z,15.01
2023-05-10T09:32:55.272Z,15.05
2023-05-10T09:35:27.194Z,15.23
2023-05-10T09:37:58.218Z,15.24
2023-05-10T09:40:26.777Z,15.22
2023-05-10T09:42:56.157Z,15.35
2023-05-10T09:45:27.055Z,15.51
2023-05-10T09:47:54.242Z,15.56
2023-05-10T09:50:21.831Z,15.27
2023-05-10T09:52:54.526Z,15.31
2023-05-10T09:55:26.281Z,15.28
2023-05-10T09:58:02.938Z,15.17
2023-05-10T10:00:35.253Z,15.01
2023-05-10T10:03:02.351Z,14.86
2023-05-10T10:05:30.044Z,14.92
2023-05-10T10:07:58.783Z,14.72
2023-05-10T10:10:26.482Z,14.61
2023-05-10T10:12:53.532Z,14.68
2023-05-10T10:15:21.933Z,14.71
2023-05-10T10:17:50.197Z,14.69
2023-05-10T10:20:17.679Z,14.70
2023-05-10T10:22:44.896Z,14.56
2023-05-10T10:25:13.104Z,14.65
2023-05-10T10:28:01.722Z,14.56
2023-05-10T10:30:35.852Z,14.52
2023-05-10T10:33:28.873Z,14.64
2023-05-10T10:35:58.973Z,14.51
2023-05-10T10:38:25.628Z,14.51
2023-05-10T10:41:11.809Z,14.36
2023-05-10T10:43:38.368Z,14.62
2023-05-10T10:46:18.722Z,14.62
2023-05-10T10:48:50.736Z,14.51
2023-05-10T10:51:17.560Z,14.57
2023-05-10T10:53:44.727Z,14.58
2023-05-10T10:56:15.975Z,14.74
2023-05-10T10:58:42.620Z,14.93
2023-05-10T11:01:19.823Z,14.84
2023-05-10T11:04:09.397Z,14.76
2023-05-10T11:06:37.064Z,14.48
2023-05-10T11:09:08.528Z,14.32
2023-05-10T11:11:36.554Z,14.27
2023-05-10T11:14:08.238Z,14.39
2023-05-10T11:16:45.751Z,14.29
2023-05-10T11:19:16.600Z,14.20
2023-05-10T11:21:50.078Z,14.18
2023-05-10T11:24:27.885Z,14.42
2023-05-10T11:26:54.922Z,14.34
2023-05-10T11:29:21.530Z,14.47
2023-05-10T11:31:49.516Z,14.41
2023-05-10T11:34:34.793Z,14.31
2023-05-10T11:37:01.933Z,14.46
2023-05-10T11:39:29.859Z,14.49
2023-05-10T11:41:57.096Z,14.33
2023-05-10T11:44:24.196Z,14.37
2023-05-10T11:46:50.872Z,14.52
2023-05-10T11:49:17.403Z,14.79
2023-05-10T11:51:44.802Z,15.00
2023-05-10T11:54:12.388Z,15.22
2023-05-10T11:56:42.062Z,14.98
2023-05-10T11:59:09.186Z,14.91
2023-05-10T12:01:36.632Z,14.99
2023-05-10T12:04:03.771Z,15.18
2023-05-10T12:06:33.273Z,15.10
2023-05-10T12:09:00.263Z,15.47
2023-05-10T12:11:28.842Z,15.41
2023-05-10T12:13:57.246Z,15.26
2023-05-10T12:16:25.749Z,15.15
2023-05-10T12:18:53.867Z,14.86
2023-05-10T12:21:21.645Z,15.02
2023-05-10T12:23:51.503Z,14.95
2023-05-10T12:26:18.532Z,15.11
2023-05-10T12:28:45.373Z,15.19
2023-05-10T12:31:11.878Z,15.24
2023-05-10T12:33:46.432Z,15.33
2023-05-10T12:36:17.101Z,15.41
2023-05-10T12:38:45.325Z,15.45
2023-05-10T12:41:14.343Z,15.51
2023-05-10T12:43:41.598Z,15.45
2023-05-10T12:46:16.117Z,15.52
2023-05-10T12:48:44.802Z,15.47
2023-05-10T12:51:18.074Z,15.60
2023-05-10T12:53:48.743Z,15.66
2023-05-10T12:56:16.251Z,15.47
2023-05-10T12:58:42.773Z,15.35
2023-05-10T13:01:09.486Z,15.39
2023-05-10T13:03:36.019Z,15.39
2023-05-10T13:06:03.331Z,15.58
2023-05-10T13:08:34.205Z,15.94
2023-05-10T13:11:01.856Z,16.08
2023-05-10T13:13:28.399Z,16.26
2023-05-10T13:15:55.457Z,16.61
2023-05-10T13:18:22.011Z,16.99
2023-05-10T13:20:50.528Z,16.95
2023-05-10T13:23:17.090Z,16.95
2023-05-10T13:25:43.546Z,16.87
2023-05-10T13:28:10.024Z,16.95
2023-05-10T13:30:36.576Z,16.76
2023-05-10T13:33:03.061Z,16.90
2023-05-10T13:35:29.630Z,17.38
2023-05-10T13:37:58.591Z,17.24
2023-05-10T13:40:25.106Z,17.34
2023-05-10T13:42:51.568Z,17.04
2023-05-10T13:45:18.170Z,17.20
2023-05-10T13:47:44.955Z,17.20
2023-05-10T13:50:11.464Z,17.77
2023-05-10T13:52:38.307Z,17.94
2023-05-10T13:55:05.170Z,18.01
2023-05-10T13:57:31.684Z,18.26
2023-05-10T13:59:58.558Z,18.36
2023-05-10T14:02:25.536Z,18.41
2023-05-10T14:04:54.459Z,18.90
2023-05-10T14:07:21.394Z,18.80
2023-05-10T14:09:48.036Z,19.41
2023-05-10T14:12:15.555Z,19.60
2023-05-10T14:14:42.064Z,19.70
2023-05-10T14:19:38.546Z,20.53
2023-05-10T14:22:05.034Z,20.89
2023-05-10T14:24:31.551Z,20.76
2023-05-10T14:26:58.088Z,20.90
2023-05-10T14:29:24.690Z,19.97
2023-05-10T14:31:51.380Z,20.20
2023-05-10T14:34:17.897Z,20.22
2023-05-10T14:36:44.365Z,20.72
2023-05-10T14:39:13.636Z,20.45
2023-05-10T14:41:42.456Z,20.12
2023-05-10T14:44:08.966Z,20.58
2023-05-10T14:46:36.108Z,20.86
2023-05-10T14:49:02.728Z,20.58
2023-05-10T14:51:29.182Z,21.19
2023-05-10T14:53:55.623Z,21.27
2023-05-10T14:56:22.989Z,20.71
2023-05-10T14:58:50.905Z,20.82
2023-05-10T15:01:17.424Z,20.84
2023-05-10T15:03:44.351Z,20.75
2023-05-10T15:06:11.731Z,20.68
2023-05-10T15:08:38.202Z,20.49
2023-05-10T15:11:04.854Z,20.31
2023-05-10T15:13:31.443Z,20.31
2023-05-10T15:15:57.972Z,20.32
2023-05-10T15:18:27.189Z,20.22
2023-05-10T15:20:53.637Z,20.17
2023-05-10T15:23:20.076Z,20.06
2023-05-10T15:25:46.517Z,19.84
2023-05-10T15:28:13.017Z,19.47
2023-05-10T15:30:39.694Z,19.11
2023-05-10T15:33:06.595Z,18.66
2023-05-10T15:35:33.325Z,18.71
2023-05-10T15:37:59.825Z,18.69
2023-05-10T15:40:26.310Z,18.66
2023-05-10T15:42:52.742Z,18.78
2023-05-10T15:45:19.768Z,18.84
2023-05-10T15:47:46.446Z,18.88
2023-05-10T15:50:12.975Z,18.83
2023-05-10T15:52:39.507Z,18.69
2023-05-10T15:55:12.671Z,18.54
2023-05-10T15:57:41.408Z,18.56
2023-05-10T16:00:09.688Z,18.55
2023-05-10T16:02:37.388Z,18.41
2023-05-10T16:05:08.501Z,18.26
2023-05-10T16:07:35.059Z,18.22
2023-05-10T16:10:04.141Z,18.23
2023-05-10T16:12:31.469Z,18.08
2023-05-10T16:14:58.114Z,18.07
2023-05-10T16:17:24.785Z,18.02
2023-05-10T16:19:51.382Z,17.94
2023-05-10T16:22:17.954Z,17.89
2023-05-10T16:24:44.500Z,17.76
2023-05-10T16:27:12.508Z,17.60
2023-05-10T16:29:39.128Z,17.62
2023-05-10T16:32:05.821Z,17.61
2023-05-10T16:34:32.343Z,17.58
2023-05-10T16:36:58.801Z,17.55
2023-05-10T16:39:25.257Z,17.45
2023-05-10T16:41:51.708Z,17.43
2023-05-10T16:44:20.128Z,17.42
2023-05-10T16:46:47.254Z,17.30
2023-05-10T16:49:14.018Z,17.20
2023-05-10T16:51:40.943Z,17.08
2023-05-10T16:54:07.670Z,17.00
2023-05-10T16:56:34.130Z,17.00
2023-05-10T16:59:00.670Z,16.98
2023-05-10T17:01:27.382Z,16.89
2023-05-10T17:03:54.222Z,16.66
2023-05-10T17:06:20.701Z,16.52
2023-05-10T17:08:47.299Z,16.40
2023-05-10T17:11:13.782Z,16.38
2023-05-10T17:13:40.492Z,16.22
2023-05-10T17:16:08.297Z,16.27
2023-05-10T17:18:35.006Z,16.21
2023-05-10T17:21:01.577Z,16.10
2023-05-10T17:23:28.137Z,15.97
2023-05-10T17:25:54.626Z,15.80
2023-05-10T17:28:21.195Z,15.48
2023-05-10T17:30:48.306Z,15.38
2023-05-10T17:33:14.744Z,15.28
2023-05-10T17:35:44.485Z,15.19
2023-05-10T17:38:11.041Z,14.98
2023-05-10T17:40:40.786Z,14.88
2023-05-10T17:43:07.302Z,14.94
2023-05-10T17:45:33.828Z,14.94
2023-05-10T17:48:00.487Z,14.95
2023-05-10T17:50:27.034Z,14.92
2023-05-10T17:52:53.517Z,14.94
2023-05-10T17:55:20.115Z,14.99
2023-05-10T17:57:46.594Z,15.03
2023-05-10T18:00:13.810Z,15.02
2023-05-10T18:02:40.337Z,14.93
2023-05-10T18:05:07.345Z,14.82
2023-05-10T18:07:34.005Z,14.68
2023-05-10T18:10:01.126Z,14.55
2023-05-10T18:12:27.689Z,14.45
2023-05-10T18:14:54.211Z,14.23
2023-05-10T18:17:20.971Z,14.27
2023-05-10T18:19:47.495Z,14.30
2023-05-10T18:22:14.006Z,14.18
2023-05-10T18:24:40.537Z,14.14
2023-05-10T18:27:08.799Z,14.04
2023-05-10T18:29:36.308Z,14.02
2023-05-10T18:32:02.994Z,14.08
2023-05-10T18:34:29.471Z,13.91
2023-05-10T18:36:56.349Z,13.97
2023-05-10T18:39:23.053Z,13.88
2023-05-10T18:41:50.185Z,13.89
2023-05-10T18:44:16.737Z,13.83
2023-05-10T18:46:43.361Z,13.80
2023-05-10T18:49:10.010Z,13.82
2023-05-10T18:51:36.508Z,13.74
2023-05-10T18:54:03.509Z,13.71
2023-05-10T18:56:29.974Z,13.63
2023-05-10T18:58:56.553Z,13.65
2023-05-10T19:01:23.086Z,13.59
2023-05-10T19:03:49.555Z,13.60
2023-05-10T19:06:16.106Z,13.64
2023-05-10T19:08:42.609Z,13.54
2023-05-10T19:11:09.190Z,13.55
2023-05-10T19:13:35.859Z,13.49
2023-05-10T19:16:02.473Z,13.47
2023-05-10T19:18:29.021Z,13.46
2023-05-10T19:20:56.452Z,13.31
2023-05-10T19:23:24.318Z,13.40
2023-05-10T19:25:51.993Z,13.31
2023-05-10T19:28:18.871Z,13.31
2023-05-10T19:30:48.720Z,13.38
2023-05-10T19:33:15.398Z,13.39
2023-05-10T19:35:42.877Z,13.31
2023-05-10T19:38:09.324Z,13.26
2023-05-10T19:40:36.304Z,13.19
2023-05-10T19:43:03.751Z,13.18
2023-05-10T19:45:30.255Z,13.22
2023-05-10T19:47:56.773Z,13.18
2023-05-10T19:50:23.346Z,13.11
2023-05-10T19:52:50.613Z,13.07
2023-05-10T19:55:29.599Z,13.20
2023-05-10T19:57:56.213Z,13.27
2023-05-10T20:00:22.969Z,13.29
2023-05-10T20:02:49.944Z,13.28
2023-05-10T20:05:16.665Z,13.24
2023-05-10T20:07:43.353Z,13.29
2023-05-10T20:10:10.686Z,13.24
2023-05-10T20:12:37.443Z,13.21
2023-05-10T20:15:06.376Z,13.24
2023-05-10T20:17:33.070Z,13.22
2023-05-10T20:19:59.688Z,13.20
2023-05-10T20:22:26.181Z,13.22
2023-05-10T20:24:54.371Z,13.19
2023-05-10T20:27:22.470Z,13.15
2023-05-10T20:29:48.956Z,13.09
2023-05-10T20:32:15.581Z,13.01
2023-05-10T20:34:42.034Z,13.06
2023-05-10T20:37:08.567Z,13.00
2023-05-10T20:39:35.034Z,12.98
2023-05-10T20:42:01.508Z,12.94
2023-05-10T20:44:28.645Z,12.92
2023-05-10T20:46:55.315Z,12.89
2023-05-10T20:49:21.858Z,12.90
2023-05-10T20:51:48.341Z,12.94
2023-05-10T20:54:14.841Z,12.97
2023-05-10T20:56:41.292Z,13.01
2023-05-10T20:59:07.767Z,12.90
2023-05-10T21:01:34.282Z,12.82
2023-05-10T21:04:00.813Z,12.84
2023-05-10T21:06:27.322Z,12.80
2023-05-10T21:08:53.804Z,12.85
2023-05-10T21:11:20.770Z,12.85
2023-05-10T21:13:47.220Z,12.84
2023-05-10T21:16:13.796Z,12.75
2023-05-10T21:18:40.344Z,12.75
2023-05-10T21:21:06.860Z,12.69
2023-05-10T21:23:34.699Z,12.64
2023-05-10T21:26:03.373Z,12.64
2023-05-10T21:28:29.857Z,12.64
2023-05-10T21:30:56.771Z,12.62
2023-05-10T21:33:23.801Z,12.62
2023-05-10T21:35:50.574Z,12.56
2023-05-10T21:38:17.154Z,12.56
2023-05-10T21:40:43.677Z,12.60
2023-05-10T21:43:11.219Z,12.59
2023-05-10T21:45:38.030Z,12.60
2023-05-10T21:48:04.693Z,12.59
2023-05-10T21:50:31.240Z,12.62
2023-05-10T21:52:58.012Z,12.56
2023-05-10T21:55:24.600Z,12.51
2023-05-10T21:57:51.192Z,12.55
2023-05-10T22:00:19.278Z,12.61
2023-05-10T22:02:46.641Z,12.64
2023-05-10T22:05:13.485Z,12.73
2023-05-10T22:07:40.264Z,12.77
2023-05-10T22:10:08.936Z,12.72
2023-05-10T22:12:35.781Z,12.74
2023-05-10T22:17:31.725Z,12.63
2023-05-10T22:19:58.236Z,12.65
2023-05-10T22:22:24.729Z,12.50
2023-05-10T22:24:51.193Z,12.48
2023-05-10T22:27:17.957Z,12.44
2023-05-10T22:29:46.352Z,12.42
2023-05-10T22:32:12.813Z,12.34
2023-05-10T22:34:39.326Z,12.27
2023-05-10T22:37:05.916Z,12.34
2023-05-10T22:39:33.139Z,12.37
2023-05-10T22:41:59.812Z,12.31
2023-05-10T22:44:26.348Z,12.30
2023-05-10T22:46:52.914Z,12.26
2023-05-10T22:49:19.498Z,12.35
2023-05-10T22:51:46.578Z,12.38
2023-05-10T22:54:13.039Z,12.38
2023-05-10T22:56:39.555Z,12.35
2023-05-10T22:59:06.080Z,12.36
2023-05-10T23:01:32.629Z,12.38
2023-05-10T23:03:59.269Z,12.39
2023-05-10T23:06:27.332Z,12.39
2023-05-10T23:08:54.661Z,12.37
2023-05-10T23:11:22.028Z,12.35
2023-05-10T23:13:48.609Z,12.39
2023-05-10T23:16:15.121Z,12.37
2023-05-10T23:18:41.785Z,12.38
2023-05-10T23:21:08.283Z,12.34
2023-05-10T23:23:34.875Z,12.36
2023-05-10T23:26:02.166Z,12.40
2023-05-10T23:28:28.585Z,12.33
2023-05-10T23:30:56.339Z,12.33
2023-05-10T23:33:23.656Z,12.39
2023-05-10T23:35:50.422Z,12.35
2023-05-10T23:38:17.178Z,12.32
2023-05-10T23:40:43.627Z,12.36
2023-05-10T23:43:10.149Z,12.29
2023-05-10T23:45:36.613Z,12.33
2023-05-10T23:48:03.195Z,12.29
2023-05-10T23:50:29.693Z,12.28
2023-05-10T23:52:56.150Z,12.33
2023-05-10T23:55:22.620Z,12.29
2023-05-10T23:57:49.082Z,12.37
